Time;durP1;ratioP1;P1;durP2;ratioP2;P2;SDS_P1;SDS_P2;PMS_P1;PMS_P2;Temp;Humidity;BMP_temperature;BMP_pressure;BME280_temperature;BME280_humidity;BME280_pressure;Samples;Min_cycle;Max_cycle;Signal;HPM_P1;HPM_P2
2023/07/16 00:01:31;;;;;;;2.83;2.43;;;;;;;;;;5021834;28;20187;-67
2023/07/16 00:03:56;;;;;;;5.53;2.90;;;;;;;;;;5039837;28;20264;-67
2023/07/16 00:06:22;;;;;;;4.80;3.23;;;;;;;;;;5040236;28;20277;-67
2023/07/16 00:08:48;;;;;;;9.17;3.23;;;;;;;;;;5040156;28;20190;-67
2023/07/16 00:11:14;;;;;;;5.60;2.90;;;;;;;;;;5019900;28;20187;-67
2023/07/16 00:13:45;;;;;;;5.90;3.00;;;;;;;;;;5036840;28;20348;-66
2023/07/16 00:16:11;;;;;;;7.13;3.97;;;;;;;;;;5037122;28;20245;-67
2023/07/16 00:18:37;;;;;;;5.97;3.60;;;;;;;;;;5036797;28;20575;-67
2023/07/16 00:21:03;;;;;;;5.90;3.70;;;;;;;;;;5038930;28;20221;-68
2023/07/16 00:23:29;;;;;;;6.67;3.67;;;;;;;;;;5037371;28;20183;-67
2023/07/16 00:25:55;;;;;;;5.23;3.13;;;;;;;;;;5038166;28;20203;-68
2023/07/16 00:28:21;;;;;;;5.03;3.67;;;;;;;;;;5018101;28;20278;-68
2023/07/16 00:30:48;;;;;;;6.97;3.40;;;;;;;;;;5035650;28;20189;-68
2023/07/16 00:33:14;;;;;;;6.00;3.20;;;;;;;;;;5017970;28;20644;-69
2023/07/16 00:35:39;;;;;;;9.50;3.97;;;;;;;;;;5035535;28;20223;-68
2023/07/16 00:38:05;;;;;;;8.03;3.83;;;;;;;;;;5036369;28;20633;-68
2023/07/16 00:40:31;;;;;;;6.37;4.00;;;;;;;;;;5017820;28;20637;-68
2023/07/16 00:42:57;;;;;;;6.63;3.90;;;;;;;;;;5017863;28;20720;-68
2023/07/16 00:45:23;;;;;;;4.17;3.73;;;;;;;;;;5075823;22;20299;-64
2023/07/16 00:47:49;;;;;;;5.37;3.80;;;;;;;;;;5055268;28;20174;-64
2023/07/16 00:50:15;;;;;;;8.63;4.10;;;;;;;;;;5055177;28;20175;-64
2023/07/16 00:52:41;;;;;;;9.40;6.23;;;;;;;;;;5037475;28;20178;-64
2023/07/16 00:55:08;;;;;;;6.70;4.63;;;;;;;;;;5037125;28;20668;-64
2023/07/16 00:57:35;;;;;;;7.30;4.00;;;;;;;;;;5055152;28;20232;-64
2023/07/16 01:00:01;;;;;;;7.03;3.83;;;;;;;;;;5055037;28;20257;-64
2023/07/16 01:02:27;;;;;;;6.87;4.13;;;;;;;;;;5054870;28;20187;-64
2023/07/16 01:04:53;;;;;;;8.37;4.43;;;;;;;;;;5054773;28;20202;-64
2023/07/16 01:07:20;;;;;;;9.20;4.93;;;;;;;;;;5054969;28;20236;-64
2023/07/16 01:09:46;;;;;;;8.10;4.27;;;;;;;;;;5055049;28;20674;-64
2023/07/16 01:12:13;;;;;;;8.47;5.13;;;;;;;;;;5054848;28;20179;-65
2023/07/16 01:14:40;;;;;;;6.03;4.93;;;;;;;;;;5055131;28;20676;-64
2023/07/16 01:17:06;;;;;;;11.67;5.47;;;;;;;;;;5054674;28;20174;-64
2023/07/16 01:19:32;;;;;;;8.53;5.37;;;;;;;;;;5036815;28;20269;-64
2023/07/16 01:22:01;;;;;;;7.70;4.27;;;;;;;;;;5054734;28;20635;-64
2023/07/16 01:24:43;;;;;;;8.90;4.53;;;;;;;;;;5036631;28;20219;-62
2023/07/16 01:27:24;;;;;;;7.40;4.60;;;;;;;;;;5036822;28;20232;-62
2023/07/16 01:29:53;;;;;;;9.93;4.50;;;;;;;;;;5037105;28;20274;-62
2023/07/16 01:32:20;;;;;;;10.93;4.13;;;;;;;;;;5054958;28;20289;-64
2023/07/16 01:34:46;;;;;;;7.90;4.23;;;;;;;;;;5054317;28;20218;-64
2023/07/16 01:37:12;;;;;;;6.80;4.17;;;;;;;;;;5036515;28;20266;-64
2023/07/16 01:39:38;;;;;;;8.43;4.00;;;;;;;;;;5054551;28;20644;-63
2023/07/16 01:42:04;;;;;;;7.03;3.87;;;;;;;;;;5054241;28;20210;-63
2023/07/16 01:44:30;;;;;;;9.30;4.73;;;;;;;;;;5054089;28;20293;-62
2023/07/16 01:47:07;;;;;;;8.17;4.23;;;;;;;;;;5036275;28;20671;-62
2023/07/16 01:49:33;;;;;;;10.63;4.47;;;;;;;;;;5054085;28;20184;-62
2023/07/16 01:52:00;;;;;;;7.37;4.53;;;;;;;;;;5054054;28;20193;-64
2023/07/16 01:54:26;;;;;;;7.30;3.87;;;;;;;;;;5053898;28;20210;-64
2023/07/16 01:56:52;;;;;;;5.90;4.30;;;;;;;;;;5036033;28;20261;-62
2023/07/16 01:59:18;;;;;;;6.50;4.13;;;;;;;;;;5054076;28;20179;-63
2023/07/16 02:01:44;;;;;;;5.57;4.00;;;;;;;;;;5053909;28;20185;-63
2023/07/16 02:04:10;;;;;;;6.17;4.30;;;;;;;;;;5054094;28;20241;-62
2023/07/16 02:06:36;;;;;;;6.33;4.00;;;;;;;;;;5053861;28;20182;-63
2023/07/16 02:09:02;;;;;;;7.15;4.20;;;;;;;;;;5034756;28;20389;-62
2023/07/16 02:11:29;;;;;;;6.90;4.03;;;;;;;;;;5054245;28;20232;-62
2023/07/16 02:13:55;;;;;;;7.27;4.00;;;;;;;;;;5053511;28;20208;-62
2023/07/16 02:16:21;;;;;;;7.67;4.30;;;;;;;;;;5053636;28;20542;-62
2023/07/16 02:18:47;;;;;;;8.90;3.83;;;;;;;;;;5053535;28;20546;-62
2023/07/16 02:21:12;;;;;;;8.37;3.93;;;;;;;;;;5053526;28;20174;-62
2023/07/16 02:23:38;;;;;;;6.47;3.63;;;;;;;;;;5053536;28;20171;-62
2023/07/16 02:26:05;;;;;;;6.10;3.77;;;;;;;;;;5053624;28;20181;-62
2023/07/16 02:28:31;;;;;;;9.50;3.97;;;;;;;;;;5053711;28;20229;-63
2023/07/16 02:30:57;;;;;;;9.03;3.50;;;;;;;;;;5053882;28;20174;-62
2023/07/16 02:33:23;;;;;;;6.47;4.10;;;;;;;;;;5053842;28;20282;-64
2023/07/16 02:35:50;;;;;;;6.60;3.80;;;;;;;;;;5052859;28;20175;-65
2023/07/16 02:38:16;;;;;;;8.73;3.90;;;;;;;;;;5035588;28;20175;-65
2023/07/16 02:40:45;;;;;;;6.07;3.50;;;;;;;;;;5053578;28;20170;-65
2023/07/16 02:43:11;;;;;;;6.57;3.43;;;;;;;;;;5053855;28;20182;-65
2023/07/16 02:45:37;;;;;;;7.13;3.50;;;;;;;;;;5054142;28;20339;-65
2023/07/16 02:48:03;;;;;;;6.73;3.37;;;;;;;;;;5054387;28;20179;-65
2023/07/16 02:50:29;;;;;;;10.17;3.83;;;;;;;;;;5056165;28;20632;-65
2023/07/16 02:52:55;;;;;;;7.20;3.40;;;;;;;;;;5056051;28;20194;-62
2023/07/16 02:55:21;;;;;;;8.20;3.30;;;;;;;;;;5054267;28;20201;-63
2023/07/16 02:57:47;;;;;;;6.60;3.30;;;;;;;;;;5053233;28;20185;-64
2023/07/16 03:00:13;;;;;;;10.13;3.10;;;;;;;;;;5053389;28;20185;-63
2023/07/16 03:02:39;;;;;;;6.80;3.47;;;;;;;;;;5053342;28;20547;-65
2023/07/16 03:05:05;;;;;;;11.27;3.57;;;;;;;;;;5053055;28;20202;-63
2023/07/16 03:07:31;;;;;;;8.93;3.83;;;;;;;;;;5053116;28;20659;-63
2023/07/16 03:09:57;;;;;;;6.40;3.43;;;;;;;;;;5053514;28;20179;-63
2023/07/16 03:12:23;;;;;;;9.47;3.97;;;;;;;;;;5053111;28;20694;-63
2023/07/16 03:14:53;;;;;;;7.37;3.33;;;;;;;;;;5034942;28;20688;-63
2023/07/16 03:17:19;;;;;;;6.07;3.10;;;;;;;;;;5053363;28;20183;-63
2023/07/16 03:19:45;;;;;;;8.97;3.10;;;;;;;;;;5052938;28;20182;-63
2023/07/16 03:22:11;;;;;;;10.47;3.20;;;;;;;;;;5035043;28;20182;-63
2023/07/16 03:24:37;;;;;;;7.20;2.90;;;;;;;;;;5034984;28;20210;-63
2023/07/16 03:27:03;;;;;;;5.43;3.40;;;;;;;;;;5053088;28;20289;-64
2023/07/16 03:29:29;;;;;;;9.27;3.50;;;;;;;;;;5052825;28;20572;-63
2023/07/16 03:31:55;;;;;;;5.10;2.87;;;;;;;;;;5034854;28;20182;-63
2023/07/16 03:34:21;;;;;;;5.43;2.93;;;;;;;;;;5052677;28;20233;-63
2023/07/16 03:36:47;;;;;;;8.90;3.43;;;;;;;;;;5052707;28;20178;-63
2023/07/16 03:39:13;;;;;;;12.47;3.33;;;;;;;;;;5052905;28;20233;-63
2023/07/16 03:41:39;;;;;;;9.27;3.13;;;;;;;;;;5034826;28;20178;-63
2023/07/16 03:44:05;;;;;;;9.87;3.30;;;;;;;;;;5052840;28;20626;-63
2023/07/16 03:46:31;;;;;;;10.50;3.50;;;;;;;;;;5054888;28;20209;-63
2023/07/16 03:48:57;;;;;;;6.57;3.00;;;;;;;;;;5038473;28;20186;-64
2023/07/16 03:51:23;;;;;;;7.43;3.17;;;;;;;;;;5056333;28;20178;-63
2023/07/16 03:53:49;;;;;;;8.87;3.33;;;;;;;;;;5056191;28;20210;-63
2023/07/16 03:56:16;;;;;;;12.37;3.63;;;;;;;;;;5056506;28;20292;-64
2023/07/16 03:58:42;;;;;;;9.90;3.63;;;;;;;;;;5056364;28;20615;-63
2023/07/16 04:01:08;;;;;;;8.10;3.30;;;;;;;;;;5056096;28;20632;-63
2023/07/16 04:03:34;;;;;;;10.40;3.70;;;;;;;;;;5056250;28;20185;-63
2023/07/16 04:06:09;;;;;;;5.93;3.20;;;;;;;;;;5056061;28;20209;-63
2023/07/16 04:08:35;;;;;;;8.87;3.20;;;;;;;;;;5038169;28;20170;-63
2023/07/16 04:11:01;;;;;;;6.93;3.50;;;;;;;;;;5038158;28;20182;-64
2023/07/16 04:13:27;;;;;;;5.23;3.20;;;;;;;;;;5056634;28;20198;-63
2023/07/16 04:15:54;;;;;;;6.80;3.53;;;;;;;;;;5057123;28;20197;-64
2023/07/16 04:18:20;;;;;;;8.40;3.40;;;;;;;;;;5057102;28;20235;-63
2023/07/16 04:20:46;;;;;;;9.10;3.67;;;;;;;;;;5056787;28;20624;-64
2023/07/16 04:23:12;;;;;;;8.37;3.57;;;;;;;;;;5055870;28;20178;-64
2023/07/16 04:25:38;;;;;;;8.07;3.80;;;;;;;;;;5037859;28;20260;-64
2023/07/16 04:28:04;;;;;;;11.07;3.57;;;;;;;;;;5056468;28;20185;-64
2023/07/16 04:30:30;;;;;;;11.87;4.37;;;;;;;;;;5038646;28;20187;-65
2023/07/16 04:32:56;;;;;;;10.53;3.60;;;;;;;;;;5037830;28;20197;-65
2023/07/16 04:35:22;;;;;;;8.37;3.70;;;;;;;;;;5056092;28;20577;-64
2023/07/16 04:37:48;;;;;;;8.50;4.03;;;;;;;;;;5038234;28;20182;-64
2023/07/16 04:40:14;;;;;;;11.87;3.70;;;;;;;;;;5056590;28;20189;-65
2023/07/16 04:42:40;;;;;;;10.10;3.90;;;;;;;;;;5056204;28;20183;-64
2023/07/16 04:45:06;;;;;;;11.40;3.73;;;;;;;;;;5038030;28;20214;-64
2023/07/16 04:47:32;;;;;;;12.87;4.20;;;;;;;;;;5037913;28;20633;-64
2023/07/16 04:49:58;;;;;;;7.57;3.57;;;;;;;;;;5037974;28;20178;-63
2023/07/16 04:52:24;;;;;;;10.33;4.10;;;;;;;;;;5056622;28;20175;-63
2023/07/16 04:54:50;;;;;;;9.03;3.43;;;;;;;;;;5056260;28;20583;-63
2023/07/16 04:57:16;;;;;;;9.33;4.20;;;;;;;;;;5037770;28;20186;-63
2023/07/16 04:59:42;;;;;;;7.80;3.80;;;;;;;;;;5037983;28;20312;-64
2023/07/16 05:02:08;;;;;;;12.53;3.93;;;;;;;;;;5055250;28;20637;-64
2023/07/16 05:04:35;;;;;;;7.70;3.80;;;;;;;;;;5055165;28;20241;-64
2023/07/16 05:07:03;;;;;;;11.53;3.73;;;;;;;;;;5055010;28;20174;-64
2023/07/16 05:09:29;;;;;;;8.57;3.70;;;;;;;;;;5037233;28;20596;-63
2023/07/16 05:11:55;;;;;;;7.47;3.50;;;;;;;;;;5037267;28;20201;-65
2023/07/16 05:14:21;;;;;;;6.17;3.20;;;;;;;;;;5037307;28;20601;-65
2023/07/16 05:16:47;;;;;;;5.87;3.53;;;;;;;;;;5037506;28;20187;-66
2023/07/16 05:19:13;;;;;;;9.03;3.60;;;;;;;;;;5055201;28;20175;-64
2023/07/16 05:21:39;;;;;;;6.57;3.43;;;;;;;;;;5037211;28;20193;-63
2023/07/16 05:24:05;;;;;;;7.80;3.50;;;;;;;;;;5037329;28;20683;-65
2023/07/16 05:26:33;;;;;;;6.40;3.13;;;;;;;;;;5037199;28;20587;-65
2023/07/16 05:28:58;;;;;;;8.73;3.80;;;;;;;;;;5054965;28;20170;-65
2023/07/16 05:31:24;;;;;;;6.50;3.33;;;;;;;;;;5055822;28;20581;-65
2023/07/16 05:33:50;;;;;;;7.53;3.30;;;;;;;;;;5054729;28;20649;-64
2023/07/16 05:36:16;;;;;;;10.47;3.73;;;;;;;;;;5055127;28;20179;-64
2023/07/16 05:38:42;;;;;;;8.50;3.83;;;;;;;;;;5054964;28;20177;-64
2023/07/16 05:41:08;;;;;;;7.70;3.80;;;;;;;;;;5037155;28;20284;-64
2023/07/16 05:43:34;;;;;;;9.17;4.00;;;;;;;;;;5054823;28;20237;-64
2023/07/16 05:46:00;;;;;;;11.43;4.30;;;;;;;;;;5036880;28;20265;-64
2023/07/16 05:48:26;;;;;;;8.87;4.57;;;;;;;;;;5036608;28;20183;-64
2023/07/16 05:50:52;;;;;;;8.90;4.17;;;;;;;;;;5055215;28;20581;-64
2023/07/16 05:53:18;;;;;;;10.37;4.13;;;;;;;;;;5036386;28;20210;-64
2023/07/16 05:55:44;;;;;;;9.87;4.17;;;;;;;;;;5054433;28;20205;-64
2023/07/16 05:58:10;;;;;;;7.63;4.13;;;;;;;;;;5054282;28;20224;-64
2023/07/16 06:00:36;;;;;;;9.40;4.50;;;;;;;;;;5054404;28;20183;-64
2023/07/16 06:03:03;;;;;;;8.77;4.23;;;;;;;;;;5036465;28;20178;-64
2023/07/16 06:05:33;;;;;;;10.27;4.77;;;;;;;;;;5054036;28;20209;-64
2023/07/16 06:07:59;;;;;;;8.23;4.33;;;;;;;;;;5036194;28;20171;-65
2023/07/16 06:10:25;;;;;;;9.73;4.90;;;;;;;;;;5053391;28;20661;-64
2023/07/16 06:12:51;;;;;;;7.40;4.67;;;;;;;;;;5054718;28;20608;-65
2023/07/16 06:15:17;;;;;;;13.57;5.00;;;;;;;;;;5054377;28;20202;-63
2023/07/16 06:17:43;;;;;;;12.33;4.90;;;;;;;;;;5036155;28;20178;-64
2023/07/16 06:20:09;;;;;;;9.73;5.57;;;;;;;;;;5054062;28;20313;-63
2023/07/16 06:22:35;;;;;;;11.50;5.13;;;;;;;;;;5054243;28;20221;-64
2023/07/16 06:25:01;;;;;;;13.63;5.50;;;;;;;;;;5054254;28;20603;-63
2023/07/16 06:27:27;;;;;;;8.87;4.73;;;;;;;;;;5036253;28;20200;-64
2023/07/16 06:29:53;;;;;;;10.40;5.10;;;;;;;;;;5035966;28;20703;-64
2023/07/16 06:32:20;;;;;;;9.83;5.47;;;;;;;;;;5053832;28;20202;-63
2023/07/16 06:34:46;;;;;;;9.90;4.90;;;;;;;;;;5035608;28;20214;-64
2023/07/16 06:37:12;;;;;;;12.57;5.70;;;;;;;;;;5053734;28;20186;-63
2023/07/16 06:39:38;;;;;;;12.03;5.33;;;;;;;;;;5053744;28;20182;-64
2023/07/16 06:42:04;;;;;;;7.47;5.17;;;;;;;;;;5036014;28;20232;-63
2023/07/16 06:44:30;;;;;;;12.03;5.50;;;;;;;;;;5053409;28;20248;-63
2023/07/16 06:46:57;;;;;;;14.03;5.50;;;;;;;;;;5035816;28;20190;-63
2023/07/16 06:49:23;;;;;;;10.60;5.77;;;;;;;;;;5035747;28;20205;-63
2023/07/16 06:51:49;;;;;;;13.93;5.90;;;;;;;;;;5053909;28;20174;-64
2023/07/16 06:54:15;;;;;;;10.73;5.67;;;;;;;;;;5036122;28;20214;-63
2023/07/16 06:56:41;;;;;;;11.53;5.13;;;;;;;;;;5054382;28;20198;-64
2023/07/16 06:59:07;;;;;;;11.13;5.63;;;;;;;;;;5035963;28;20178;-63
2023/07/16 07:01:33;;;;;;;9.30;5.50;;;;;;;;;;5055711;28;20217;-64
2023/07/16 07:03:59;;;;;;;11.23;5.43;;;;;;;;;;5055199;28;20238;-63
2023/07/16 07:06:25;;;;;;;11.83;5.40;;;;;;;;;;5054055;28;20186;-63
2023/07/16 07:08:51;;;;;;;11.03;5.37;;;;;;;;;;5053224;28;20197;-63
2023/07/16 07:11:17;;;;;;;10.60;5.40;;;;;;;;;;5053208;28;20205;-63
2023/07/16 07:13:43;;;;;;;7.30;4.93;;;;;;;;;;5053184;28;20210;-63
2023/07/16 07:16:09;;;;;;;11.53;5.60;;;;;;;;;;5035327;28;20181;-63
2023/07/16 07:18:35;;;;;;;12.10;5.83;;;;;;;;;;5054190;28;20171;-63
2023/07/16 07:21:01;;;;;;;13.73;6.60;;;;;;;;;;5055115;28;20174;-63
2023/07/16 07:23:27;;;;;;;11.10;5.93;;;;;;;;;;5057422;28;20178;-64
2023/07/16 07:25:53;;;;;;;9.13;5.90;;;;;;;;;;5057676;28;20247;-63
2023/07/16 07:28:19;;;;;;;10.80;5.50;;;;;;;;;;5039465;28;20183;-64
2023/07/16 07:30:46;;;;;;;11.00;5.90;;;;;;;;;;5039271;28;20210;-64
2023/07/16 07:33:12;;;;;;;13.97;5.67;;;;;;;;;;5039337;28;20279;-63
2023/07/16 07:35:38;;;;;;;9.97;5.57;;;;;;;;;;5057747;28;20198;-64
2023/07/16 07:38:04;;;;;;;9.73;5.57;;;;;;;;;;5039269;28;20183;-63
2023/07/16 07:40:30;;;;;;;11.70;5.80;;;;;;;;;;5039266;28;20176;-64
2023/07/16 07:42:56;;;;;;;11.57;5.90;;;;;;;;;;5039881;28;20630;-63
2023/07/16 07:45:22;;;;;;;11.10;6.17;;;;;;;;;;5057423;28;20210;-63
2023/07/16 07:47:48;;;;;;;10.90;5.93;;;;;;;;;;5039441;28;20640;-63
2023/07/16 07:50:14;;;;;;;11.50;6.30;;;;;;;;;;5057243;28;20213;-63
2023/07/16 07:52:40;;;;;;;10.80;5.80;;;;;;;;;;5057546;28;20174;-64
2023/07/16 07:55:06;;;;;;;13.90;6.23;;;;;;;;;;5039379;28;20730;-63
2023/07/16 07:57:32;;;;;;;13.53;6.03;;;;;;;;;;5039238;28;20175;-63
2023/07/16 07:59:58;;;;;;;10.13;5.77;;;;;;;;;;5056877;28;20174;-63
2023/07/16 08:02:25;;;;;;;11.23;6.07;;;;;;;;;;5039187;28;20265;-64
2023/07/16 08:04:54;;;;;;;9.93;5.70;;;;;;;;;;5039510;28;20213;-63
2023/07/16 08:07:21;;;;;;;11.03;5.97;;;;;;;;;;5039382;28;20182;-64
2023/07/16 08:09:47;;;;;;;15.07;5.73;;;;;;;;;;5057429;28;20178;-64
2023/07/16 08:12:13;;;;;;;15.27;5.93;;;;;;;;;;5057151;28;20198;-64
2023/07/16 08:14:39;;;;;;;11.77;5.90;;;;;;;;;;5039363;28;20248;-65
2023/07/16 08:19:34;;;;;;;11.20;6.57;;;;;;;;;;5054274;28;20700;-66
2023/07/16 08:22:00;;;;;;;13.10;6.10;;;;;;;;;;5037826;28;20282;-65
2023/07/16 08:24:26;;;;;;;13.07;5.83;;;;;;;;;;5056703;28;20261;-65
2023/07/16 08:26:52;;;;;;;7.07;5.23;;;;;;;;;;5056061;28;20710;-64
2023/07/16 08:29:18;;;;;;;11.10;5.60;;;;;;;;;;5037546;28;20202;-65
2023/07/16 08:31:43;;;;;;;13.93;6.13;;;;;;;;;;5055787;28;20179;-66
2023/07/16 08:34:09;;;;;;;9.20;5.33;;;;;;;;;;5054907;28;20590;-66
2023/07/16 08:36:40;;;;;;;10.60;6.03;;;;;;;;;;5055846;28;20179;-66
2023/07/16 08:39:07;;;;;;;11.00;6.17;;;;;;;;;;5037631;28;20195;-66
2023/07/16 08:41:33;;;;;;;17.67;8.30;;;;;;;;;;5037431;28;20648;-66
2023/07/16 08:43:59;;;;;;;15.80;6.37;;;;;;;;;;5055578;28;20187;-65
2023/07/16 08:46:25;;;;;;;8.07;5.37;;;;;;;;;;5055423;28;20182;-66
2023/07/16 08:48:52;;;;;;;8.70;5.70;;;;;;;;;;5037145;28;20202;-65
2023/07/16 08:51:18;;;;;;;13.33;5.77;;;;;;;;;;5055198;28;20193;-66
2023/07/16 08:53:44;;;;;;;8.03;5.20;;;;;;;;;;5055285;28;20285;-65
2023/07/16 08:56:10;;;;;;;10.00;5.47;;;;;;;;;;5037700;28;20277;-66
2023/07/16 08:58:38;;;;;;;8.70;5.37;;;;;;;;;;5054979;28;20213;-66
2023/07/16 09:01:05;;;;;;;11.30;5.70;;;;;;;;;;5037264;28;20208;-66
2023/07/16 09:03:31;;;;;;;11.43;5.53;;;;;;;;;;5037023;28;20182;-66
2023/07/16 09:05:57;;;;;;;7.07;5.00;;;;;;;;;;5054985;28;20182;-66
2023/07/16 09:08:28;;;;;;;7.27;5.23;;;;;;;;;;5054963;28;20739;-66
2023/07/16 09:10:55;;;;;;;12.97;5.20;;;;;;;;;;5037031;28;20167;-66
2023/07/16 09:13:21;;;;;;;10.60;5.50;;;;;;;;;;5054764;28;20198;-66
2023/07/16 09:15:51;;;;;;;8.40;5.47;;;;;;;;;;5036827;28;20637;-66
2023/07/16 09:18:25;;;;;;;15.03;5.67;;;;;;;;;;5054819;28;20746;-66
2023/07/16 09:20:57;;;;;;;9.77;5.33;;;;;;;;;;5055083;28;20178;-65
2023/07/16 09:23:29;;;;;;;7.67;5.10;;;;;;;;;;5054905;28;20183;-66
2023/07/16 09:25:55;;;;;;;13.53;5.80;;;;;;;;;;5054558;28;20183;-66
2023/07/16 09:28:21;;;;;;;9.07;5.20;;;;;;;;;;5036662;28;20199;-66
2023/07/16 09:30:48;;;;;;;9.83;5.70;;;;;;;;;;5054592;28;20232;-66
2023/07/16 09:33:15;;;;;;;9.53;4.97;;;;;;;;;;5054646;28;20198;-66
2023/07/16 09:35:41;;;;;;;8.40;4.87;;;;;;;;;;5054439;28;20186;-66
2023/07/16 09:38:09;;;;;;;7.67;4.73;;;;;;;;;;5036284;28;20198;-66
2023/07/16 09:40:35;;;;;;;10.77;5.33;;;;;;;;;;5054884;28;20221;-66
2023/07/16 09:43:01;;;;;;;11.00;5.73;;;;;;;;;;5054185;28;20641;-66
2023/07/16 09:45:27;;;;;;;10.87;5.13;;;;;;;;;;5054099;28;20240;-65
2023/07/16 09:47:53;;;;;;;7.60;4.70;;;;;;;;;;5053987;28;20217;-66
2023/07/16 09:50:19;;;;;;;6.93;4.97;;;;;;;;;;5036181;28;20619;-66
2023/07/16 09:52:47;;;;;;;8.83;5.10;;;;;;;;;;5054113;28;20171;-66
2023/07/16 09:55:13;;;;;;;7.57;4.50;;;;;;;;;;5053996;28;20683;-66
2023/07/16 09:57:41;;;;;;;10.93;5.07;;;;;;;;;;5036333;28;20271;-65
2023/07/16 10:00:12;;;;;;;9.67;5.30;;;;;;;;;;5036491;28;20277;-66
2023/07/16 10:02:38;;;;;;;12.47;5.63;;;;;;;;;;5054676;28;20639;-66
2023/07/16 10:05:16;;;;;;;9.63;5.00;;;;;;;;;;5036448;28;20209;-65
2023/07/16 10:07:43;;;;;;;6.47;4.50;;;;;;;;;;5055609;28;20272;-64
2023/07/16 10:10:10;;;;;;;9.83;4.87;;;;;;;;;;5059338;28;20187;-65
2023/07/16 10:12:36;;;;;;;9.47;4.37;;;;;;;;;;5057121;28;20202;-65
2023/07/16 10:15:03;;;;;;;10.90;4.83;;;;;;;;;;5040975;28;20206;-65
2023/07/16 10:17:30;;;;;;;7.83;4.37;;;;;;;;;;5038759;28;20229;-65
2023/07/16 10:19:57;;;;;;;6.97;4.77;;;;;;;;;;5038145;28;20167;-64
2023/07/16 10:22:33;;;;;;;5.80;4.87;;;;;;;;;;5039594;28;20185;-65
2023/07/16 10:24:59;;;;;;;9.00;4.67;;;;;;;;;;5056764;28;20194;-64
2023/07/16 10:27:29;;;;;;;10.57;4.90;;;;;;;;;;5039808;28;20254;-65
2023/07/16 10:29:55;;;;;;;5.20;4.40;;;;;;;;;;5057900;28;20186;-65
2023/07/16 10:32:21;;;;;;;9.50;4.27;;;;;;;;;;5039495;28;20190;-65
2023/07/16 10:34:47;;;;;;;11.10;4.77;;;;;;;;;;5056008;28;20230;-64
2023/07/16 10:37:13;;;;;;;8.47;4.83;;;;;;;;;;5055048;28;20181;-64
2023/07/16 10:39:49;;;;;;;5.97;4.50;;;;;;;;;;5037234;28;20182;-64
2023/07/16 10:42:19;;;;;;;8.40;4.33;;;;;;;;;;5055125;28;20663;-64
2023/07/16 10:44:45;;;;;;;8.43;4.87;;;;;;;;;;5054920;28;20178;-64
2023/07/16 10:47:20;;;;;;;7.33;5.33;;;;;;;;;;5054911;28;20189;-64
2023/07/16 10:49:46;;;;;;;8.73;4.83;;;;;;;;;;5054983;28;20200;-65
2023/07/16 10:52:12;;;;;;;6.37;5.10;;;;;;;;;;5055101;28;20232;-64
2023/07/16 10:54:37;;;;;;;6.80;4.93;;;;;;;;;;5037251;28;20205;-65
2023/07/16 10:57:04;;;;;;;6.97;4.53;;;;;;;;;;5054378;28;20770;-65
2023/07/16 10:59:30;;;;;;;8.30;5.20;;;;;;;;;;5054818;28;20181;-65
2023/07/16 11:01:56;;;;;;;10.77;4.93;;;;;;;;;;5054438;28;20178;-64
2023/07/16 11:04:22;;;;;;;6.93;4.77;;;;;;;;;;5035285;28;20223;-65
2023/07/16 11:06:50;;;;;;;7.40;4.70;;;;;;;;;;5053307;28;20178;-64
2023/07/16 11:09:16;;;;;;;7.00;4.30;;;;;;;;;;5054650;28;20289;-64
2023/07/16 11:11:42;;;;;;;6.63;4.70;;;;;;;;;;5035406;28;20220;-64
2023/07/16 11:14:09;;;;;;;8.27;5.10;;;;;;;;;;5053026;28;20195;-65
2023/07/16 11:16:38;;;;;;;6.33;4.57;;;;;;;;;;5053215;28;20177;-65
2023/07/16 11:19:05;;;;;;;10.93;5.27;;;;;;;;;;5052884;28;20218;-64
2023/07/16 11:21:31;;;;;;;11.80;4.53;;;;;;;;;;5035385;28;20271;-65
2023/07/16 11:24:07;;;;;;;9.90;4.97;;;;;;;;;;5053223;28;20178;-65
2023/07/16 11:26:33;;;;;;;7.77;4.53;;;;;;;;;;5053178;28;20166;-65
2023/07/16 11:28:59;;;;;;;7.53;4.53;;;;;;;;;;5053120;28;20198;-65
2023/07/16 11:31:25;;;;;;;7.87;4.40;;;;;;;;;;5053164;28;20210;-65
2023/07/16 11:33:51;;;;;;;8.77;4.60;;;;;;;;;;5052996;28;20590;-65
2023/07/16 11:36:17;;;;;;;6.40;4.83;;;;;;;;;;5052919;28;20177;-65
2023/07/16 11:38:43;;;;;;;7.03;4.60;;;;;;;;;;5035176;28;20715;-65
2023/07/16 11:41:09;;;;;;;5.63;4.50;;;;;;;;;;5052903;28;20649;-65
2023/07/16 11:43:35;;;;;;;6.90;4.23;;;;;;;;;;5035689;28;20603;-65
2023/07/16 11:46:02;;;;;;;7.77;4.70;;;;;;;;;;5053225;28;20179;-64
2023/07/16 11:48:28;;;;;;;6.07;4.60;;;;;;;;;;5052917;28;20214;-65
2023/07/16 11:50:54;;;;;;;6.10;4.20;;;;;;;;;;5053497;28;20206;-65
2023/07/16 11:53:20;;;;;;;7.87;4.47;;;;;;;;;;5052937;28;20292;-65
2023/07/16 11:55:46;;;;;;;6.57;4.43;;;;;;;;;;5035102;28;20189;-64
2023/07/16 11:58:12;;;;;;;8.60;4.87;;;;;;;;;;5053342;28;20199;-65
2023/07/16 12:00:38;;;;;;;9.73;4.67;;;;;;;;;;5052997;28;20663;-65
2023/07/16 12:03:04;;;;;;;10.93;4.83;;;;;;;;;;5035099;28;20618;-65
2023/07/16 12:05:30;;;;;;;8.60;4.83;;;;;;;;;;5052712;28;20545;-65
2023/07/16 12:07:56;;;;;;;10.30;4.20;;;;;;;;;;5055046;28;20198;-65
2023/07/16 12:10:22;;;;;;;5.23;4.20;;;;;;;;;;5038122;28;20208;-65
2023/07/16 12:12:48;;;;;;;5.97;4.10;;;;;;;;;;5055934;28;20174;-64
2023/07/16 12:15:14;;;;;;;9.93;4.13;;;;;;;;;;5055903;28;20642;-65
2023/07/16 12:17:39;;;;;;;5.50;4.00;;;;;;;;;;5037834;28;20241;-64
2023/07/16 12:20:06;;;;;;;8.40;4.17;;;;;;;;;;5037905;28;20233;-64
2023/07/16 12:22:32;;;;;;;7.43;4.30;;;;;;;;;;5055700;28;20173;-64
2023/07/16 12:24:58;;;;;;;12.07;4.37;;;;;;;;;;5056304;28;20537;-64
2023/07/16 12:27:24;;;;;;;5.70;3.50;;;;;;;;;;5055973;28;20348;-64
2023/07/16 12:29:52;;;;;;;5.23;3.67;;;;;;;;;;5038060;28;20193;-65
2023/07/16 12:32:17;;;;;;;4.97;3.47;;;;;;;;;;5038585;28;20247;-64
2023/07/16 12:34:44;;;;;;;4.17;3.43;;;;;;;;;;5038193;28;20731;-64
2023/07/16 12:37:10;;;;;;;6.47;3.63;;;;;;;;;;5038234;28;20558;-65
2023/07/16 12:39:36;;;;;;;7.90;3.50;;;;;;;;;;5037851;28;20179;-65
2023/07/16 12:42:02;;;;;;;5.63;3.63;;;;;;;;;;5037676;28;20174;-65
2023/07/16 12:44:28;;;;;;;7.80;4.07;;;;;;;;;;5037479;28;20182;-65
2023/07/16 12:46:54;;;;;;;9.33;4.10;;;;;;;;;;5055359;28;20175;-64
2023/07/16 12:49:20;;;;;;;5.47;3.50;;;;;;;;;;5037368;28;20200;-65
2023/07/16 12:51:46;;;;;;;6.97;4.20;;;;;;;;;;5037473;28;20232;-65
2023/07/16 12:54:12;;;;;;;6.53;3.83;;;;;;;;;;5055142;28;20297;-65
2023/07/16 12:56:38;;;;;;;6.33;3.73;;;;;;;;;;5037382;28;20182;-65
2023/07/16 12:59:04;;;;;;;6.77;3.50;;;;;;;;;;5038125;28;20194;-65
2023/07/16 13:01:30;;;;;;;5.87;3.90;;;;;;;;;;5055615;28;20686;-64
2023/07/16 13:03:56;;;;;;;8.87;4.03;;;;;;;;;;5037258;28;20683;-64
2023/07/16 13:06:22;;;;;;;6.50;3.90;;;;;;;;;;5037146;28;20615;-65
2023/07/16 13:08:48;;;;;;;3.87;3.30;;;;;;;;;;5037049;28;20206;-66
2023/07/16 13:11:14;;;;;;;5.97;3.80;;;;;;;;;;5055014;28;20182;-65
2023/07/16 13:13:42;;;;;;;6.33;3.60;;;;;;;;;;5036867;28;20202;-66
2023/07/16 13:16:08;;;;;;;7.50;4.20;;;;;;;;;;5054842;28;20167;-66
2023/07/16 13:18:33;;;;;;;7.10;4.00;;;;;;;;;;5054087;28;20589;-66
2023/07/16 13:20:59;;;;;;;7.47;4.07;;;;;;;;;;5054719;28;20613;-66
2023/07/16 13:23:25;;;;;;;5.20;3.70;;;;;;;;;;5054869;28;20539;-66
2023/07/16 13:25:52;;;;;;;5.10;3.40;;;;;;;;;;5054781;28;20179;-66
2023/07/16 13:28:18;;;;;;;4.90;3.80;;;;;;;;;;5054592;28;20191;-66
2023/07/16 13:30:44;;;;;;;8.30;3.30;;;;;;;;;;5036686;28;20719;-66
2023/07/16 13:33:10;;;;;;;5.47;3.07;;;;;;;;;;5054588;28;20210;-63
2023/07/16 13:35:36;;;;;;;10.27;3.80;;;;;;;;;;5036673;28;20175;-63
2023/07/16 13:38:02;;;;;;;6.20;3.60;;;;;;;;;;5036468;28;20194;-64
2023/07/16 13:40:28;;;;;;;4.53;3.23;;;;;;;;;;5036689;28;20208;-64
2023/07/16 13:42:54;;;;;;;5.30;3.23;;;;;;;;;;5036637;28;20269;-65
2023/07/16 13:45:20;;;;;;;4.97;3.30;;;;;;;;;;5055096;28;20644;-65
2023/07/16 13:47:46;;;;;;;5.20;3.73;;;;;;;;;;5054140;28;20199;-65
2023/07/16 13:50:12;;;;;;;5.53;3.57;;;;;;;;;;5054155;28;20216;-65
2023/07/16 13:52:38;;;;;;;5.87;3.53;;;;;;;;;;5036268;28;20190;-65
2023/07/16 13:55:05;;;;;;;3.77;3.30;;;;;;;;;;5037258;28;20209;-65
2023/07/16 13:57:31;;;;;;;4.60;3.50;;;;;;;;;;5054051;28;20199;-66
2023/07/16 13:59:57;;;;;;;6.10;3.47;;;;;;;;;;5036043;28;20181;-66
2023/07/16 14:02:23;;;;;;;8.37;4.20;;;;;;;;;;5053817;28;20182;-66
2023/07/16 14:04:48;;;;;;;5.77;3.50;;;;;;;;;;5053863;28;20179;-65
2023/07/16 14:07:14;;;;;;;5.15;3.53;;;;;;;;;;5052587;28;20385;-65
2023/07/16 14:09:40;;;;;;;4.82;3.65;;;;;;;;;;5053946;28;20185;-65
2023/07/16 14:12:07;;;;;;;6.15;3.40;;;;;;;;;;5054158;28;20178;-64
2023/07/16 14:14:33;;;;;;;3.55;3.00;;;;;;;;;;5053634;28;20202;-64
2023/07/16 14:16:59;;;;;;;3.53;3.03;;;;;;;;;;5035666;28;20670;-64
2023/07/16 14:19:25;;;;;;;6.32;3.00;;;;;;;;;;5053154;28;20206;-64
2023/07/16 14:21:51;;;;;;;4.43;2.50;;;;;;;;;;5053988;28;20178;-64
2023/07/16 14:24:17;;;;;;;6.27;3.13;;;;;;;;;;5035547;28;20660;-64
2023/07/16 14:26:43;;;;;;;4.35;2.75;;;;;;;;;;5053644;28;20186;-64
2023/07/16 14:29:11;;;;;;;7.05;3.30;;;;;;;;;;5053289;28;20198;-64
2023/07/16 14:31:37;;;;;;;4.60;2.90;;;;;;;;;;5053432;28;20171;-64
2023/07/16 14:34:02;;;;;;;6.87;3.00;;;;;;;;;;5053495;28;20198;-65
2023/07/16 14:36:28;;;;;;;5.70;2.80;;;;;;;;;;5035558;28;20201;-65
2023/07/16 14:38:55;;;;;;;6.73;3.27;;;;;;;;;;5053137;28;20194;-65